Glendale, AZ

7:28 AM MST on October 02, 2014 (GMT -0700)
Glendale Municipal | Change Station
CLOSE
Current Station
Airport
Location: Glendale,
Elevation: 1066 ft
Nearby Weather Stations

Elev 1066 ft 33.53 °N, 112.29 °W | Updated 41 minutes ago

Clear
Clear
72 °F
Feels Like 72 °F
N
7
Wind Variable Wind from NNE

Today
High -- | Low -- °F
--% Chance of Precip.
Yesterday
High -- | Low -- °F
Precip. -- in
6:24 AM 6:12 PM
First Quarter, 59% visible
Pressure 29.99 in
Visibility 20.0 miles
Clouds Clear
Dew Point 37 °F
Humidity 29%
Rainfall 0.00 in
Snow Depth 1 in , 0 in , 0 in
UV 0 out of 12
Pollen 6.40 out of 12
PM2.5 Good
Flu Activity Not available.
METAR KGEU 021347Z 02006KT 20SM SKC 22/03 A2999

More Conditions Fewer Conditions

Pressure 29.99 in
Visibility 20.0 miles
Clouds Clear
Dew Point 37 °F
Humidity 29%
Rainfall 0.00 in
Snow Depth 1 in , 0 in , 0 in
UV 0 out of 12
Pollen 6.40 out of 12
PM2.5 Good
Flu Activity Not available.
METAR KGEU 021347Z 02006KT 20SM SKC 22/03 A2999

More Conditions Fewer Conditions

10-Day Weather Forecast

Almanac

Astronomy

Oct. 02, 2014 Rise Set
Actual Time 6:24 AM MST 6:12 PM MST
Civil Twilight 5:59 AM MST 6:36 PM MST
Nautical Twilight 5:30 AM MST 7:05 PM MST
Astronomical Twilight 5:01 AM MST 7:34 PM MST
Moon 2:06 PM MST 12:01 AM MST
Length of Visible Light 12h 37m
Length of Day
11h 47m
Tomorrow will be 2m 2s shorter.
First Quarter, 59% of the Moon is Illuminated
Today
First Quarter
Oct 8
Full
Oct 15
Last Quarter
Oct 23
New
Oct 30
First Quarter

Today's Extremes

State Highs State Lows

Community

WunderPhotos

Upload Photos

1,758,250 photos uploaded!

WunderBlogs® & News

By Dr. Jeff Masters
Director of Meteorology, Weather Underground
By Kari Strenfel
Meteorologist, Weather Underground
By Christopher C. Burt
Weather Historian, Weather Underground
October 2, 2014
October 2, 2014
October 2, 2014

Nearby

Air Quality

  Air Quality AQ Index Pollutant
Yesterday Moderate
OZONE
Yesterday Good
PM10
Current Good
PM2.5
Thursday Moderate
OZONE
Thursday Good
PM10
Thursday Good
CO
Friday Good
OZONE
Friday Good
PM10
Friday Good
CO

Snow Depth

Station Depth Elevation
Coronado Trail 1 in 8400 ft
Fry 0 in 7200 ft
Maverick Fork 0 in 9200 ft
Wildcat 0 in 7850 ft
White Horse Lake 1 in 7180 ft

Earthquake Activity

City Distance Mag. Time & Date
No recent earthquake activity has been reported nearby.
Minimum magnitude displayed is 2.5.

Coastal Water Temperatures

Place Temperature
No Stations Reporting

Nearby Weather Stations